Time;durP1;ratioP1;P1;durP2;ratioP2;P2;SDS_P1;SDS_P2;PMS_P1;PMS_P2;Temp;Humidity;BMP_temperature;BMP_pressure;BME280_temperature;BME280_humidity;BME280_pressure;Samples;Min_cycle;Max_cycle;Signal;HPM_P1;HPM_P2
2020/12/31 00:01:57;;;;;;;3.47;2.13;;;1.50;99.90;;;;;;5066874;28;20037;-80
2020/12/31 00:04:23;;;;;;;3.87;2.10;;;1.50;99.90;;;;;;5067841;28;20021;-80
2020/12/31 00:06:49;;;;;;;5.47;2.60;;;1.40;99.90;;;;;;5066365;28;20052;-79
2020/12/31 00:09:15;;;;;;;3.33;2.20;;;1.40;99.90;;;;;;5055365;28;20029;-79
2020/12/31 00:11:40;;;;;;;7.43;2.40;;;1.40;99.90;;;;;;5048573;28;20431;-79
2020/12/31 00:14:07;;;;;;;3.67;2.27;;;1.40;99.90;;;;;;5045294;28;20171;-81
2020/12/31 00:16:34;;;;;;;3.50;2.13;;;1.30;99.90;;;;;;5047676;28;20025;-78
2020/12/31 00:19:00;;;;;;;4.13;2.30;;;1.30;99.90;;;;;;5049416;28;20032;-81
2020/12/31 00:21:26;;;;;;;2.87;2.00;;;1.20;99.90;;;;;;5045344;28;20095;-78
2020/12/31 00:23:51;;;;;;;4.20;2.20;;;1.20;99.90;;;;;;5048692;28;20076;-78
2020/12/31 00:26:17;;;;;;;3.67;2.40;;;1.30;99.90;;;;;;5049051;28;20016;-81
2020/12/31 00:28:43;;;;;;;4.07;2.30;;;1.30;99.90;;;;;;5044881;28;20033;-80
2020/12/31 00:31:09;;;;;;;3.03;2.20;;;1.30;99.90;;;;;;5046770;28;20071;-79
2020/12/31 00:33:35;;;;;;;3.30;2.20;;;1.30;99.90;;;;;;5048177;28;20220;-76
2020/12/31 00:36:01;;;;;;;4.83;2.33;;;1.30;99.90;;;;;;5051260;28;20028;-78
2020/12/31 00:38:26;;;;;;;4.23;2.60;;;1.30;99.90;;;;;;5047118;28;20444;-79
2020/12/31 00:40:52;;;;;;;4.33;2.50;;;1.20;99.90;;;;;;5046954;28;20054;-78
2020/12/31 00:43:19;;;;;;;3.47;2.47;;;1.20;99.90;;;;;;5049128;28;20049;-79
2020/12/31 00:45:44;;;;;;;5.57;2.60;;;1.20;99.90;;;;;;5046691;28;20064;-79
2020/12/31 00:48:10;;;;;;;4.53;2.40;;;1.20;99.90;;;;;;5048225;28;20503;-78
2020/12/31 00:50:36;;;;;;;5.40;2.87;;;1.30;99.90;;;;;;5044623;28;20066;-78
2020/12/31 00:53:02;;;;;;;5.37;2.23;;;1.30;99.90;;;;;;5047903;28;20104;-78
2020/12/31 00:55:28;;;;;;;5.33;2.77;;;1.30;99.90;;;;;;5028966;28;20534;-78
2020/12/31 00:57:54;;;;;;;4.33;2.60;;;1.20;99.90;;;;;;5041040;28;20044;-76
2020/12/31 01:00:20;;;;;;;4.23;2.77;;;1.30;99.90;;;;;;5044156;28;20025;-79
2020/12/31 01:02:45;;;;;;;6.33;3.00;;;1.30;99.90;;;;;;5042377;28;20167;-77
2020/12/31 01:05:12;;;;;;;4.80;2.50;;;1.30;99.90;;;;;;5046108;28;20048;-77
2020/12/31 01:07:38;;;;;;;4.47;2.40;;;1.30;99.90;;;;;;5046727;28;20033;-78
2020/12/31 01:10:05;;;;;;;6.57;3.07;;;1.20;99.90;;;;;;5046423;28;20111;-78
2020/12/31 01:12:31;;;;;;;5.10;2.80;;;1.30;99.90;;;;;;5046429;28;20029;-80
2020/12/31 01:14:56;;;;;;;5.17;3.40;;;1.20;99.90;;;;;;5044777;28;20033;-78
2020/12/31 01:17:25;;;;;;;5.40;2.57;;;1.20;99.90;;;;;;5047016;28;20048;-78
2020/12/31 01:19:51;;;;;;;6.77;3.10;;;1.20;99.90;;;;;;5046790;28;20091;-79
2020/12/31 01:22:17;;;;;;;4.20;2.60;;;1.20;99.90;;;;;;5046559;28;20072;-78
2020/12/31 01:24:43;;;;;;;5.17;3.00;;;1.20;99.90;;;;;;5046946;28;20044;-79
2020/12/31 01:27:09;;;;;;;6.17;3.30;;;1.20;99.90;;;;;;5047454;28;20465;-78
2020/12/31 01:29:34;;;;;;;5.80;3.20;;;1.20;99.90;;;;;;5046453;28;20036;-79
2020/12/31 01:32:00;;;;;;;7.00;3.43;;;1.20;99.90;;;;;;5046812;28;20143;-79
2020/12/31 01:34:26;;;;;;;5.50;3.23;;;1.20;99.90;;;;;;5047745;28;20060;-80
2020/12/31 01:36:53;;;;;;;4.40;3.00;;;1.20;99.90;;;;;;5043362;28;20033;-78
2020/12/31 01:39:22;;;;;;;6.83;3.37;;;1.20;99.90;;;;;;5048938;28;20052;-78
2020/12/31 01:41:49;;;;;;;5.13;3.28;;;1.20;99.90;;;;;;5050536;28;20084;-79
2020/12/31 01:44:15;;;;;;;5.37;3.30;;;1.20;99.90;;;;;;5046953;28;20071;-77
2020/12/31 01:46:44;;;;;;;6.27;3.27;;;1.20;99.90;;;;;;5049634;28;20030;-80
2020/12/31 01:49:12;;;;;;;4.78;2.95;;;1.20;99.90;;;;;;5044874;28;20025;-78
2020/12/31 01:51:41;;;;;;;5.93;3.47;;;1.30;99.90;;;;;;5046437;28;20029;-77
2020/12/31 01:54:07;;;;;;;5.43;2.70;;;1.20;99.90;;;;;;5040663;28;20044;-78
2020/12/31 01:56:34;;;;;;;5.00;3.10;;;1.20;99.90;;;;;;5045260;28;20033;-79
2020/12/31 01:59:01;;;;;;;6.63;3.00;;;1.20;99.90;;;;;;5046172;28;20439;-77
2020/12/31 02:01:27;;;;;;;5.17;2.87;;;1.20;99.90;;;;;;5052322;28;20065;-78
2020/12/31 02:03:54;;;;;;;5.43;2.70;;;1.20;99.90;;;;;;5053926;28;20040;-78
2020/12/31 02:06:22;;;;;;;6.43;3.47;;;1.20;99.90;;;;;;5051051;28;20025;-79
2020/12/31 02:08:48;;;;;;;4.33;2.73;;;1.10;99.90;;;;;;5044972;28;20021;-78
2020/12/31 02:11:15;;;;;;;6.83;3.67;;;1.10;99.90;;;;;;5052897;28;20099;-79
2020/12/31 02:13:41;;;;;;;5.47;3.37;;;1.00;99.90;;;;;;5042156;28;20048;-78
2020/12/31 02:16:15;;;;;;;5.50;3.10;;;0.90;99.90;;;;;;5043433;28;20029;-78
2020/12/31 02:19:00;;;;;;;5.90;3.50;;;0.90;99.90;;;;;;5045289;28;20388;-78
2020/12/31 02:21:28;;;;;;;5.50;3.30;;;0.90;99.90;;;;;;5044761;28;20036;-78
2020/12/31 02:23:54;;;;;;;5.63;3.57;;;0.90;99.90;;;;;;5054398;28;20122;-79
2020/12/31 02:26:26;;;;;;;6.53;3.73;;;0.80;99.90;;;;;;5044077;28;20369;-79
2020/12/31 02:28:53;;;;;;;5.73;3.60;;;0.80;99.90;;;;;;5047957;28;20032;-78
2020/12/31 02:31:20;;;;;;;6.43;4.00;;;;;;;;;;5039940;28;20069;-78
2020/12/31 02:33:46;;;;;;;6.63;4.37;;;0.60;99.90;;;;;;5044513;28;20037;-78
2020/12/31 02:36:13;;;;;;;6.03;3.93;;;0.60;99.90;;;;;;5046439;28;20396;-78
2020/12/31 02:38:39;;;;;;;7.40;4.23;;;0.50;99.90;;;;;;5049036;28;20095;-78
2020/12/31 02:41:05;;;;;;;6.37;4.00;;;0.40;99.90;;;;;;5047529;28;20369;-78
2020/12/31 02:43:31;;;;;;;5.97;3.80;;;0.40;99.90;;;;;;5050392;28;20060;-77
2020/12/31 02:45:56;;;;;;;8.37;5.00;;;0.40;99.90;;;;;;5052808;28;20035;-78
2020/12/31 02:48:22;;;;;;;7.37;3.73;;;0.30;99.90;;;;;;5050573;28;20028;-79
2020/12/31 02:50:48;;;;;;;6.57;4.33;;;0.30;99.90;;;;;;5046961;28;20025;-77
2020/12/31 02:53:13;;;;;;;7.83;3.77;;;0.30;99.90;;;;;;5049183;28;20494;-79
2020/12/31 02:55:39;;;;;;;6.57;3.90;;;0.30;99.90;;;;;;5045480;28;20533;-78
2020/12/31 02:58:04;;;;;;;7.13;3.97;;;0.30;99.90;;;;;;5045237;28;20185;-79
2020/12/31 03:00:30;;;;;;;6.57;4.20;;;0.30;99.90;;;;;;5048031;28;20033;-77
2020/12/31 03:02:55;;;;;;;7.17;4.20;;;0.30;99.90;;;;;;5048811;28;20037;-79
2020/12/31 03:05:21;;;;;;;6.83;4.37;;;0.30;99.90;;;;;;5048661;28;20427;-78
2020/12/31 03:07:47;;;;;;;7.33;3.70;;;0.30;99.90;;;;;;5050698;28;20029;-79
2020/12/31 03:10:12;;;;;;;7.90;3.80;;;0.30;99.90;;;;;;5047955;28;20102;-78
2020/12/31 03:12:38;;;;;;;7.27;4.17;;;0.30;99.90;;;;;;5050606;28;20392;-78
2020/12/31 03:15:11;;;;;;;5.53;3.43;;;0.30;99.90;;;;;;5049000;28;20468;-78
2020/12/31 03:17:40;;;;;;;6.23;3.60;;;0.30;99.90;;;;;;5048713;28;20055;-79
2020/12/31 03:20:06;;;;;;;6.15;3.78;;;0.30;99.90;;;;;;5046328;28;20404;-78
2020/12/31 03:22:33;;;;;;;5.83;4.10;;;0.20;99.90;;;;;;5044393;28;20033;-79
2020/12/31 03:24:58;;;;;;;5.90;3.63;;;0.20;99.90;;;;;;5048177;28;20170;-78
2020/12/31 03:27:24;;;;;;;6.23;3.70;;;0.20;99.90;;;;;;5044991;28;20107;-78
2020/12/31 03:29:50;;;;;;;5.47;3.47;;;0.20;99.90;;;;;;5045396;28;20087;-78
2020/12/31 03:32:16;;;;;;;4.93;3.33;;;0.20;99.90;;;;;;5047555;28;20129;-80
2020/12/31 03:34:42;;;;;;;5.43;3.13;;;0.20;99.90;;;;;;5048333;28;20036;-77
2020/12/31 03:37:07;;;;;;;6.10;3.80;;;0.20;99.90;;;;;;5047239;28;20069;-78
2020/12/31 03:39:33;;;;;;;5.23;3.40;;;0.10;99.90;;;;;;5050827;28;20091;-78
2020/12/31 03:41:59;;;;;;;5.97;3.90;;;0.10;99.90;;;;;;5041511;28;20067;-78
2020/12/31 03:44:24;;;;;;;6.33;3.43;;;0.00;99.90;;;;;;5048557;28;20053;-76
2020/12/31 03:46:50;;;;;;;6.40;3.90;;;0.00;99.90;;;;;;5047280;28;20032;-77
2020/12/31 03:49:16;;;;;;;6.40;3.80;;;-0.10;99.90;;;;;;5049568;28;20075;-77
2020/12/31 03:51:41;;;;;;;6.57;3.70;;;-0.10;99.90;;;;;;5051958;28;20108;-78
2020/12/31 03:54:07;;;;;;;6.63;3.73;;;-0.10;99.90;;;;;;5050304;28;20112;-77
2020/12/31 03:56:32;;;;;;;6.33;4.10;;;-0.20;99.90;;;;;;5049634;28;20028;-78
2020/12/31 03:58:58;;;;;;;6.50;3.73;;;-0.30;99.90;;;;;;5047148;28;20048;-77
2020/12/31 04:01:31;;;;;;;8.73;4.07;;;-0.30;99.90;;;;;;5049104;28;20021;-79
2020/12/31 04:03:57;;;;;;;7.40;3.70;;;-0.30;99.90;;;;;;5048299;28;20027;-78
2020/12/31 04:06:23;;;;;;;6.63;3.80;;;-0.30;99.90;;;;;;5047605;28;20032;-77
2020/12/31 04:08:48;;;;;;;7.53;3.97;;;-0.30;99.90;;;;;;5054257;28;20093;-79
2020/12/31 04:11:14;;;;;;;6.97;3.77;;;-0.30;99.90;;;;;;5052467;28;20039;-79
2020/12/31 04:13:40;;;;;;;7.63;4.60;;;-0.30;99.90;;;;;;5042845;28;20119;-79
2020/12/31 04:16:06;;;;;;;6.93;3.90;;;-0.30;99.90;;;;;;5049323;28;20480;-78
2020/12/31 04:18:31;;;;;;;8.47;4.33;;;-0.30;99.90;;;;;;5047887;28;20080;-79
2020/12/31 04:20:57;;;;;;;7.13;3.80;;;-0.30;99.90;;;;;;5043087;28;20039;-79
2020/12/31 04:23:23;;;;;;;7.57;4.57;;;-0.40;99.90;;;;;;5048494;28;20056;-77
2020/12/31 04:25:50;;;;;;;9.47;4.33;;;-0.40;99.90;;;;;;5047598;28;20076;-78
2020/12/31 04:28:15;;;;;;;7.10;4.17;;;-0.40;99.90;;;;;;5048225;28;20036;-78
2020/12/31 04:30:41;;;;;;;6.43;4.20;;;-0.40;99.90;;;;;;5046382;28;20087;-78
2020/12/31 04:33:06;;;;;;;7.93;4.30;;;-0.40;99.90;;;;;;5048132;28;20136;-78
2020/12/31 04:35:32;;;;;;;7.73;4.03;;;-0.50;99.90;;;;;;5048271;28;20105;-78
2020/12/31 04:37:58;;;;;;;7.70;4.30;;;-0.50;99.90;;;;;;5028544;28;20045;-78
2020/12/31 04:40:23;;;;;;;6.90;4.27;;;-0.50;99.90;;;;;;5049662;28;20060;-77
2020/12/31 04:42:51;;;;;;;8.33;4.37;;;-0.50;99.90;;;;;;5046990;28;20436;-77
2020/12/31 04:45:19;;;;;;;9.23;4.67;;;-0.50;99.90;;;;;;5047389;28;20431;-77
2020/12/31 04:48:00;;;;;;;9.63;4.37;;;-0.50;99.90;;;;;;5048337;28;20040;-77
2020/12/31 04:50:33;;;;;;;9.70;4.00;;;-0.50;99.90;;;;;;5049265;28;20488;-78
2020/12/31 04:53:07;;;;;;;7.87;4.23;;;-0.50;99.90;;;;;;5045564;28;20032;-77
2020/12/31 04:55:44;;;;;;;7.97;4.50;;;-0.50;99.90;;;;;;5043580;28;20110;-78
2020/12/31 04:58:14;;;;;;;7.77;4.23;;;-0.50;99.90;;;;;;5049233;28;20049;-79
2020/12/31 05:00:41;;;;;;;7.43;5.23;;;-0.60;99.90;;;;;;5049974;28;20473;-76
2020/12/31 05:03:07;;;;;;;7.87;4.13;;;-0.60;99.90;;;;;;5047719;28;20079;-77
2020/12/31 05:05:34;;;;;;;7.23;3.73;;;-0.60;99.90;;;;;;5047700;28;20337;-79
2020/12/31 05:08:00;;;;;;;7.67;4.30;;;-0.60;99.90;;;;;;5047200;28;20052;-78
2020/12/31 05:10:27;;;;;;;7.40;4.27;;;-0.60;99.90;;;;;;5041852;28;20076;-77
2020/12/31 05:13:04;;;;;;;6.70;4.53;;;-0.50;99.90;;;;;;5047675;28;20025;-78
2020/12/31 05:15:40;;;;;;;6.97;4.33;;;-0.60;99.90;;;;;;5045168;28;20606;-77
2020/12/31 05:18:25;;;;;;;8.93;4.43;;;-0.60;99.90;;;;;;5041225;28;20047;-79
2020/12/31 05:20:56;;;;;;;6.70;4.33;;;-0.60;99.90;;;;;;5046620;28;20026;-78
2020/12/31 05:23:23;;;;;;;7.07;4.60;;;-0.70;99.90;;;;;;5044295;28;20056;-79
2020/12/31 05:25:50;;;;;;;11.77;4.40;;;-0.80;99.90;;;;;;5047134;28;20083;-78
2020/12/31 05:28:38;;;;;;;5.97;3.83;;;-0.90;99.90;;;;;;5045765;28;20037;-77
2020/12/31 05:31:11;;;;;;;7.33;4.40;;;-0.90;99.90;;;;;;5043030;28;20365;-78
2020/12/31 05:33:42;;;;;;;8.67;4.47;;;-1.00;99.90;;;;;;5046997;28;20128;-77
2020/12/31 05:36:16;;;;;;;6.50;4.43;;;-0.90;99.90;;;;;;5045705;28;20052;-78
2020/12/31 05:39:02;;;;;;;8.23;4.17;;;-1.00;99.90;;;;;;5047497;28;20044;-79
2020/12/31 05:41:32;;;;;;;8.87;4.83;;;-0.90;99.90;;;;;;5044312;28;20028;-77
2020/12/31 05:44:05;;;;;;;7.77;4.07;;;-0.90;99.90;;;;;;5040656;28;20120;-78
2020/12/31 05:46:31;;;;;;;7.30;4.30;;;-1.00;99.90;;;;;;5042158;28;20063;-79
2020/12/31 05:48:57;;;;;;;8.00;4.50;;;-1.00;99.90;;;;;;5041907;28;20036;-78
2020/12/31 05:51:26;;;;;;;7.47;4.10;;;-1.00;99.90;;;;;;5041056;28;20115;-77
2020/12/31 05:53:52;;;;;;;7.70;4.60;;;-1.10;99.90;;;;;;5038991;28;20033;-78
2020/12/31 05:56:19;;;;;;;7.97;4.57;;;-1.20;99.90;;;;;;5046677;28;20111;-78
2020/12/31 05:58:48;;;;;;;8.03;4.07;;;-1.20;99.90;;;;;;5044731;28;20485;-78
2020/12/31 06:01:15;;;;;;;8.20;4.95;;;-1.30;99.90;;;;;;5042587;28;20064;-78
2020/12/31 06:03:49;;;;;;;7.07;4.20;;;-1.40;99.90;;;;;;5052570;28;20057;-79
2020/12/31 06:06:20;;;;;;;7.17;4.00;;;-1.40;99.90;;;;;;5057376;28;20091;-77
2020/12/31 06:08:57;;;;;;;6.97;4.17;;;-1.40;99.90;;;;;;5058034;28;20043;-78
2020/12/31 06:11:34;;;;;;;6.70;4.00;;;-1.50;99.90;;;;;;5057697;28;20033;-78
2020/12/31 06:14:05;;;;;;;5.50;3.57;;;-1.50;99.90;;;;;;5049886;28;20021;-77
2020/12/31 06:16:53;;;;;;;5.70;3.80;;;-1.50;99.90;;;;;;5052154;28;20025;-78
2020/12/31 06:19:27;;;;;;;6.33;4.30;;;-1.50;99.90;;;;;;5051485;28;20036;-78
2020/12/31 06:22:05;;;;;;;6.40;4.10;;;-1.60;99.90;;;;;;5051355;28;20029;-78
2020/12/31 06:24:41;;;;;;;7.73;4.23;;;-1.70;99.90;;;;;;5050754;28;20055;-77
2020/12/31 06:27:11;;;;;;;5.97;4.00;;;-1.60;99.90;;;;;;5049084;28;20107;-78
2020/12/31 06:29:46;;;;;;;6.77;4.20;;;-1.60;99.90;;;;;;5049467;28;20541;-77
2020/12/31 06:32:24;;;;;;;6.97;4.70;;;-1.60;99.90;;;;;;5051010;28;20083;-77
2020/12/31 06:34:50;;;;;;;7.60;3.90;;;-1.70;99.90;;;;;;5050182;28;20036;-77
2020/12/31 06:37:16;;;;;;;8.07;4.20;;;-1.70;99.90;;;;;;5046958;28;20423;-78
2020/12/31 06:39:42;;;;;;;5.93;4.00;;;-1.80;99.90;;;;;;5039914;28;20179;-78
2020/12/31 06:42:08;;;;;;;5.53;3.37;;;-1.80;99.90;;;;;;5048952;28;20087;-78
2020/12/31 06:44:35;;;;;;;6.93;4.27;;;-1.80;99.90;;;;;;5050324;28;20028;-77
2020/12/31 06:47:01;;;;;;;6.93;4.43;;;-1.80;99.90;;;;;;5049771;28;20080;-77
2020/12/31 06:49:53;;;;;;;6.17;3.90;;;-1.70;99.90;;;;;;5048835;28;20048;-78
2020/12/31 06:52:24;;;;;;;6.23;3.53;;;-1.70;99.90;;;;;;5050109;28;20021;-79
2020/12/31 06:54:50;;;;;;;6.83;4.07;;;-1.70;99.90;;;;;;5047207;28;20025;-78
2020/12/31 06:57:38;;;;;;;7.77;3.73;;;-1.70;99.90;;;;;;5049753;28;20102;-78
2020/12/31 07:00:06;;;;;;;5.87;3.57;;;-1.80;99.90;;;;;;5046829;28;20561;-80
2020/12/31 07:02:45;;;;;;;6.87;4.00;;;-1.80;99.90;;;;;;5048866;28;20018;-78
2020/12/31 07:05:23;;;;;;;7.80;3.70;;;-1.80;99.90;;;;;;5049164;28;20041;-79
2020/12/31 07:07:49;;;;;;;7.83;4.10;;;-1.70;99.90;;;;;;5050858;28;20044;-78
2020/12/31 07:10:15;;;;;;;7.40;4.37;;;-1.80;99.90;;;;;;5052273;28;20037;-78
2020/12/31 07:12:47;;;;;;;7.00;3.50;;;-1.80;99.90;;;;;;5047311;28;20013;-79
2020/12/31 07:15:14;;;;;;;5.90;3.80;;;-1.70;99.90;;;;;;5050706;28;20039;-79
2020/12/31 07:17:44;;;;;;;6.23;3.80;;;-1.70;99.90;;;;;;5048848;28;20060;-78
2020/12/31 07:20:18;;;;;;;7.27;3.93;;;-1.80;99.90;;;;;;5048038;28;20017;-78
2020/12/31 07:22:47;;;;;;;7.13;3.80;;;-1.80;99.90;;;;;;5045757;28;20160;-77
2020/12/31 07:25:16;;;;;;;7.45;3.80;;;-1.80;99.90;;;;;;5050324;28;20031;-77
2020/12/31 07:27:47;;;;;;;6.75;3.45;;;-1.80;99.90;;;;;;5048741;28;20555;-77
2020/12/31 07:30:17;;;;;;;8.07;4.60;;;-1.80;99.90;;;;;;5041875;28;20021;-79
2020/12/31 07:32:46;;;;;;;;;;;-1.80;99.90;;;;;;5047968;28;20047;-76
2020/12/31 07:35:21;;;;;;;5.63;3.22;;;-1.80;99.90;;;;;;5051975;28;20496;-77
2020/12/31 07:37:51;;;;;;;5.17;3.20;;;-1.80;99.90;;;;;;5049570;28;20028;-75
2020/12/31 07:40:29;;;;;;;5.77;3.40;;;-1.80;99.90;;;;;;5048484;28;20028;-76
2020/12/31 07:42:55;;;;;;;5.47;3.03;;;-1.70;99.90;;;;;;5049302;28;20043;-78
2020/12/31 07:45:20;;;;;;;5.93;3.77;;;-1.70;99.90;;;;;;5048888;28;20033;-79
2020/12/31 07:47:53;;;;;;;8.33;4.40;;;-1.70;99.90;;;;;;5047727;28;20032;-78
2020/12/31 07:50:20;;;;;;;9.37;5.60;;;-1.70;99.90;;;;;;5048872;28;20060;-77
2020/12/31 07:52:46;;;;;;;12.77;7.27;;;-1.60;99.90;;;;;;5046107;28;20028;-78
2020/12/31 07:55:12;;;;;;;14.67;7.90;;;-1.50;99.90;;;;;;5050643;28;20043;-77
2020/12/31 07:57:38;;;;;;;11.10;5.10;;;-1.50;99.90;;;;;;5048385;28;20029;-77
2020/12/31 08:00:07;;;;;;;19.93;8.47;;;-1.40;99.90;;;;;;5047134;28;20033;-77
2020/12/31 08:02:33;;;;;;;14.05;7.00;;;-1.40;99.90;;;;;;5048130;28;20060;-79
2020/12/31 08:05:09;;;;;;;13.23;5.80;;;-1.30;99.90;;;;;;5045620;28;20028;-77
2020/12/31 08:07:35;;;;;;;9.30;4.83;;;-1.30;99.90;;;;;;5051268;28;20036;-76
2020/12/31 08:10:01;;;;;;;7.17;3.77;;;-1.20;99.90;;;;;;5045346;28;20021;-77
2020/12/31 08:12:27;;;;;;;6.30;3.57;;;-1.10;99.90;;;;;;5052161;28;20534;-77
2020/12/31 08:14:52;;;;;;;6.60;3.60;;;-1.10;99.90;;;;;;5050931;28;20483;-78
2020/12/31 08:17:18;;;;;;;6.77;3.37;;;-1.00;99.90;;;;;;5050485;28;20047;-78
2020/12/31 08:19:44;;;;;;;7.00;3.30;;;-0.90;99.90;;;;;;5046487;28;20123;-77
2020/12/31 08:22:19;;;;;;;5.40;3.00;;;-0.80;99.90;;;;;;5045284;28;20075;-77
2020/12/31 08:24:56;;;;;;;7.43;3.23;;;-0.80;99.90;;;;;;5044787;28;20510;-78
2020/12/31 08:27:23;;;;;;;4.87;3.17;;;-0.70;99.90;;;;;;5046909;28;20036;-76
2020/12/31 08:29:49;;;;;;;6.33;3.20;;;-0.50;99.90;;;;;;5054638;28;20476;-78
2020/12/31 08:32:23;;;;;;;6.13;3.23;;;-0.50;99.90;;;;;;5040261;28;20105;-76
2020/12/31 08:34:53;;;;;;;5.67;3.57;;;-0.30;99.90;;;;;;5047854;28;20156;-77
2020/12/31 08:37:24;;;;;;;5.40;3.37;;;-0.30;99.90;;;;;;5048473;28;20812;-79
2020/12/31 08:39:52;;;;;;;6.30;3.23;;;-0.20;99.90;;;;;;5047265;28;20052;-78
2020/12/31 08:42:22;;;;;;;5.17;2.90;;;0.00;99.90;;;;;;5043386;28;20100;-79
2020/12/31 08:44:53;;;;;;;4.40;2.50;;;0.10;99.90;;;;;;5046544;28;20044;-76
2020/12/31 08:47:25;;;;;;;4.93;2.20;;;0.20;99.90;;;;;;5047058;28;20025;-76
2020/12/31 08:49:56;;;;;;;4.10;2.37;;;0.30;99.90;;;;;;5047961;28;20033;-76
2020/12/31 08:52:26;;;;;;;4.17;2.30;;;0.40;99.90;;;;;;5047819;28;20033;-77
2020/12/31 08:55:11;;;;;;;3.87;2.13;;;0.50;99.90;;;;;;5046131;28;20354;-80
2020/12/31 08:57:36;;;;;;;3.50;2.00;;;0.60;99.90;;;;;;5047722;28;20032;-77
2020/12/31 09:00:04;;;;;;;4.87;2.10;;;0.70;99.90;;;;;;5047492;28;20132;-77
2020/12/31 09:02:30;;;;;;;4.27;2.30;;;0.70;99.90;;;;;;5048247;28;20105;-76
2020/12/31 09:05:13;;;;;;;4.83;2.30;;;0.80;99.90;;;;;;5040003;28;20473;-77
2020/12/31 09:07:39;;;;;;;5.03;2.10;;;0.90;99.90;;;;;;5043969;28;20025;-79
2020/12/31 09:10:16;;;;;;;4.27;2.07;;;0.90;99.90;;;;;;5046507;28;20040;-79
2020/12/31 09:12:42;;;;;;;4.10;1.83;;;1.00;99.90;;;;;;5043615;28;20190;-80
2020/12/31 09:15:17;;;;;;;3.37;2.03;;;1.10;99.90;;;;;;5050176;28;20856;-79
2020/12/31 09:17:44;;;;;;;5.73;2.20;;;1.20;99.90;;;;;;5044255;28;20128;-80
2020/12/31 09:20:18;;;;;;;4.30;2.20;;;1.30;99.90;;;;;;5048601;28;20057;-79
2020/12/31 09:22:43;;;;;;;5.20;2.23;;;1.30;99.90;;;;;;5047775;28;20028;-80
2020/12/31 09:25:10;;;;;;;4.40;2.33;;;1.30;99.90;;;;;;5046384;28;20048;-79
2020/12/31 09:27:36;;;;;;;3.80;2.47;;;1.40;99.90;;;;;;5047544;28;20021;-77
2020/12/31 09:30:04;;;;;;;4.50;2.58;;;1.30;99.90;;;;;;5049986;28;20040;-76
2020/12/31 09:32:30;;;;;;;5.80;2.60;;;1.40;99.90;;;;;;5048535;28;20029;-74
2020/12/31 09:34:57;;;;;;;4.03;2.28;;;1.40;99.90;;;;;;5044572;28;20587;-74
2020/12/31 09:37:23;;;;;;;4.70;2.30;;;1.50;99.90;;;;;;5047835;28;20032;-74
2020/12/31 09:39:48;;;;;;;3.93;2.50;;;1.60;99.90;;;;;;5049181;28;20481;-75
2020/12/31 09:42:14;;;;;;;4.18;2.33;;;1.60;99.90;;;;;;5048035;28;20539;-75
2020/12/31 09:44:39;;;;;;;4.30;2.35;;;1.70;99.90;;;;;;5049853;28;20033;-77
2020/12/31 09:47:07;;;;;;;5.63;2.50;;;1.70;99.90;;;;;;5049291;28;20021;-75
2020/12/31 09:49:33;;;;;;;4.72;2.30;;;1.80;99.90;;;;;;5049253;28;20078;-75
2020/12/31 09:51:59;;;;;;;3.85;2.35;;;1.90;99.90;;;;;;5048489;28;20049;-74
2020/12/31 09:54:25;;;;;;;4.30;2.50;;;2.00;99.90;;;;;;5049871;28;20036;-74
2020/12/31 09:56:50;;;;;;;5.50;2.20;;;2.10;99.90;;;;;;5052920;28;20052;-74
2020/12/31 09:59:16;;;;;;;6.95;2.30;;;2.20;99.90;;;;;;5050677;28;20094;-74
2020/12/31 10:01:42;;;;;;;4.90;2.30;;;2.20;99.90;;;;;;5051612;28;20531;-75
2020/12/31 10:04:07;;;;;;;3.05;2.15;;;2.20;99.90;;;;;;5048677;28;20104;-74
2020/12/31 10:06:33;;;;;;;2.97;2.13;;;2.30;99.90;;;;;;5052220;28;20587;-75
2020/12/31 10:08:59;;;;;;;3.20;2.03;;;2.40;99.90;;;;;;5049636;28;20037;-74
2020/12/31 10:11:24;;;;;;;3.38;2.03;;;2.50;99.90;;;;;;5052187;28;20041;-74
2020/12/31 10:13:50;;;;;;;2.85;2.00;;;2.50;99.90;;;;;;5055724;28;20029;-74
2020/12/31 10:16:15;;;;;;;4.28;2.10;;;2.60;99.90;;;;;;5057104;28;20037;-75
2020/12/31 10:18:41;;;;;;;2.92;1.95;;;2.60;99.90;;;;;;5051742;28;20044;-74
2020/12/31 10:21:08;;;;;;;3.13;1.90;;;2.70;99.90;;;;;;5043938;28;20033;-75
2020/12/31 10:23:33;;;;;;;3.90;2.20;;;2.80;99.90;;;;;;5048869;28;20047;-75
2020/12/31 10:26:00;;;;;;;3.33;1.92;;;2.80;99.90;;;;;;5055125;28;20037;-75
2020/12/31 10:28:26;;;;;;;3.78;2.08;;;2.90;99.90;;;;;;5051860;28;20807;-74
2020/12/31 10:30:52;;;;;;;4.72;2.13;;;3.00;99.90;;;;;;5052522;28;20029;-75
2020/12/31 10:33:18;;;;;;;4.18;2.10;;;3.00;99.90;;;;;;5051187;28;20434;-76
2020/12/31 10:35:44;;;;;;;3.58;2.10;;;3.10;99.90;;;;;;5050493;28;20041;-73
2020/12/31 10:38:10;;;;;;;2.72;1.90;;;3.20;99.90;;;;;;5047253;28;20099;-75
2020/12/31 10:40:35;;;;;;;4.32;2.08;;;3.30;99.90;;;;;;5051843;28;20021;-75
2020/12/31 10:43:01;;;;;;;3.50;2.00;;;3.30;99.90;;;;;;5048428;28;20496;-75
2020/12/31 10:45:27;;;;;;;3.90;2.00;;;3.40;99.90;;;;;;5050794;28;20108;-73
2020/12/31 10:47:52;;;;;;;4.10;2.47;;;3.50;99.90;;;;;;5046953;28;20105;-76
2020/12/31 10:50:18;;;;;;;4.70;2.67;;;3.60;99.90;;;;;;5048119;28;20581;-75
2020/12/31 10:52:44;;;;;;;4.18;2.63;;;3.70;99.90;;;;;;5045254;28;20108;-76
2020/12/31 10:55:10;;;;;;;4.35;2.70;;;3.80;99.90;;;;;;5049073;28;20096;-75
2020/12/31 10:57:35;;;;;;;4.25;2.10;;;3.90;99.90;;;;;;5041049;28;20073;-74
2020/12/31 11:00:01;;;;;;;4.15;2.60;;;3.80;99.90;;;;;;5051255;28;20017;-75
2020/12/31 11:02:26;;;;;;;4.32;2.53;;;3.90;99.90;;;;;;5046020;28;20499;-77
2020/12/31 11:04:52;;;;;;;4.53;2.30;;;3.90;99.90;;;;;;5049709;28;20033;-73
2020/12/31 11:07:17;;;;;;;4.15;2.38;;;4.00;99.90;;;;;;5050757;28;20506;-74
2020/12/31 11:09:43;;;;;;;4.55;2.90;;;4.00;99.90;;;;;;5051204;28;20033;-74
2020/12/31 11:12:08;;;;;;;5.15;2.72;;;4.10;99.90;;;;;;5051206;28;20473;-73
2020/12/31 11:14:34;;;;;;;4.82;2.50;;;4.20;99.90;;;;;;5046599;28;20151;-74
2020/12/31 11:17:00;;;;;;;5.15;2.50;;;4.20;99.90;;;;;;5050192;28;20083;-74
2020/12/31 11:19:26;;;;;;;6.20;2.97;;;4.30;99.90;;;;;;5049377;28;20045;-76
2020/12/31 11:21:52;;;;;;;7.38;3.28;;;4.40;99.90;;;;;;5049282;28;20033;-75
2020/12/31 11:24:18;;;;;;;3.28;1.92;;;4.50;99.90;;;;;;5049300;28;20576;-75
2020/12/31 11:26:45;;;;;;;9.73;4.78;;;4.50;99.90;;;;;;5050833;28;20052;-75
2020/12/31 11:29:11;;;;;;;8.35;4.65;;;4.50;99.90;;;;;;5049022;28;20102;-73
2020/12/31 11:31:37;;;;;;;8.35;4.68;;;4.50;99.90;;;;;;5053753;28;20794;-75
2020/12/31 11:34:02;;;;;;;6.25;4.05;;;4.60;99.90;;;;;;5048296;28;20067;-74
2020/12/31 11:36:29;;;;;;;10.57;5.72;;;4.70;99.90;;;;;;5040267;28;20494;-75
2020/12/31 11:38:55;;;;;;;7.63;3.70;;;4.60;99.90;;;;;;5048317;28;20041;-75
2020/12/31 11:41:23;;;;;;;6.50;3.03;;;4.70;99.90;;;;;;5050092;28;20029;-76
2020/12/31 11:43:49;;;;;;;4.15;2.55;;;4.60;99.90;;;;;;5048537;28;20102;-75
2020/12/31 11:46:15;;;;;;;5.45;2.70;;;4.70;99.90;;;;;;5047733;28;20090;-77
2020/12/31 11:48:40;;;;;;;6.15;2.70;;;4.80;99.90;;;;;;5050196;28;20471;-76
2020/12/31 11:51:09;;;;;;;7.53;3.20;;;4.80;99.90;;;;;;5051218;28;20060;-74
2020/12/31 11:53:36;;;;;;;4.32;2.35;;;4.70;99.90;;;;;;5049445;28;20060;-78
2020/12/31 11:56:03;;;;;;;6.95;4.70;;;4.80;99.90;;;;;;5043147;28;20059;-75
2020/12/31 11:58:29;;;;;;;5.70;2.67;;;4.80;99.90;;;;;;5044813;28;20120;-76
2020/12/31 12:00:56;;;;;;;5.95;2.58;;;4.80;99.90;;;;;;5045974;28;20036;-76
2020/12/31 12:03:22;;;;;;;5.40;2.58;;;4.90;99.90;;;;;;5048516;28;20120;-78
2020/12/31 12:05:54;;;;;;;7.03;3.05;;;5.00;99.90;;;;;;5049388;28;20448;-78
2020/12/31 12:08:21;;;;;;;3.92;2.70;;;4.90;99.90;;;;;;5045965;28;20431;-78
2020/12/31 12:10:51;;;;;;;4.60;3.10;;;4.90;99.90;;;;;;5048561;28;20025;-77
2020/12/31 12:13:17;;;;;;;4.93;3.05;;;4.80;99.90;;;;;;5055990;28;20097;-76
2020/12/31 12:15:43;;;;;;;4.72;2.42;;;4.80;99.90;;;;;;5050915;28;20218;-77
2020/12/31 12:18:08;;;;;;;7.32;3.95;;;4.90;99.90;;;;;;5049122;28;20165;-75
2020/12/31 12:20:34;;;;;;;8.45;5.55;;;4.90;99.90;;;;;;5045054;28;20032;-75
2020/12/31 12:23:01;;;;;;;8.02;3.90;;;5.00;99.90;;;;;;5047213;28;20021;-76
2020/12/31 12:25:26;;;;;;;4.78;2.63;;;5.00;99.90;;;;;;5051509;28;20043;-75
2020/12/31 12:27:52;;;;;;;4.60;2.90;;;4.90;99.90;;;;;;5046382;28;20077;-76
2020/12/31 12:30:18;;;;;;;6.65;2.50;;;4.80;99.90;;;;;;5048968;28;20148;-77
2020/12/31 12:32:46;;;;;;;7.25;2.38;;;4.80;99.90;;;;;;5048658;28;20037;-75
2020/12/31 12:35:12;;;;;;;6.57;2.95;;;4.70;99.90;;;;;;5048812;28;20452;-75
2020/12/31 12:37:39;;;;;;;5.78;3.97;;;4.70;99.90;;;;;;5048516;28;20037;-74
2020/12/31 12:40:06;;;;;;;7.45;4.60;;;4.50;99.90;;;;;;5048142;28;20064;-77
2020/12/31 12:42:32;;;;;;;9.65;4.78;;;4.50;99.90;;;;;;5046811;28;20058;-75
2020/12/31 12:45:00;;;;;;;5.68;3.05;;;4.60;99.90;;;;;;5046415;28;20025;-75
2020/12/31 12:47:26;;;;;;;6.78;3.40;;;4.80;99.90;;;;;;5045663;28;20444;-75
2020/12/31 12:49:52;;;;;;;5.38;2.63;;;4.80;99.90;;;;;;5045833;28;20025;-76
2020/12/31 12:52:17;;;;;;;5.05;2.72;;;4.80;99.90;;;;;;5046949;28;20036;-77
2020/12/31 12:54:43;;;;;;;5.78;2.63;;;4.80;99.90;;;;;;5040241;28;20022;-76
2020/12/31 12:57:08;;;;;;;7.63;3.58;;;4.80;99.90;;;;;;5041212;28;20349;-75